Time;durP1;ratioP1;P1;durP2;ratioP2;P2;SDS_P1;SDS_P2;PMS_P1;PMS_P2;Temp;Humidity;BMP_temperature;BMP_pressure;BME280_temperature;BME280_humidity;BME280_pressure;Samples;Min_cycle;Max_cycle;Signal;HPM_P1;HPM_P2
2023/04/25 00:02:22;;;;;;;10.90;5.93;;;;;;;;;;5121073;28;20447;-68
2023/04/25 00:04:50;;;;;;;5.97;3.63;;;;;;;;;;5102016;28;20555;-69
2023/04/25 00:07:19;;;;;;;6.67;4.67;;;;;;;;;;5099588;28;20443;-70
2023/04/25 00:09:48;;;;;;;6.53;4.87;;;;;;;;;;5101305;28;20464;-69
2023/04/25 00:12:16;;;;;;;8.70;4.17;;;;;;;;;;5099825;28;20455;-69
2023/04/25 00:14:47;;;;;;;6.90;4.17;;;;;;;;;;5103780;28;20455;-70
2023/04/25 00:17:16;;;;;;;8.40;4.80;;;;;;;;;;5120341;28;20532;-70
2023/04/25 00:19:46;;;;;;;6.80;4.23;;;;;;;;;;5117844;28;20745;-69
2023/04/25 00:22:14;;;;;;;5.80;4.53;;;;;;;;;;5079480;28;20457;-69
2023/04/25 00:24:43;;;;;;;8.60;4.77;;;;;;;;;;5080683;28;20868;-69
2023/04/25 00:27:12;;;;;;;8.13;5.20;;;;;;;;;;5078599;28;20817;-69
2023/04/25 00:29:41;;;;;;;8.33;4.30;;;;;;;;;;5080806;28;20844;-70
2023/04/25 00:32:11;;;;;;;7.17;3.63;;;;;;;;;;5080281;28;20477;-69
2023/04/25 00:34:39;;;;;;;6.43;4.80;;;;;;;;;;5078809;28;20457;-70
2023/04/25 00:37:08;;;;;;;5.60;4.30;;;;;;;;;;5079058;28;20449;-68
2023/04/25 00:39:37;;;;;;;5.90;4.30;;;;;;;;;;5078993;28;20683;-69
2023/04/25 00:42:09;;;;;;;21.83;5.63;;;;;;;;;;5079324;28;20519;-69
2023/04/25 00:44:37;;;;;;;13.20;5.00;;;;;;;;;;5117900;28;20459;-70
2023/04/25 00:47:06;;;;;;;7.33;4.70;;;;;;;;;;5118900;28;20455;-70
2023/04/25 00:49:36;;;;;;;7.43;4.90;;;;;;;;;;5119039;28;20452;-70
2023/04/25 00:52:11;;;;;;;9.00;4.90;;;;;;;;;;5118748;28;20523;-69
2023/04/25 00:54:40;;;;;;;7.13;5.03;;;;;;;;;;5118651;28;20501;-69
2023/04/25 00:57:11;;;;;;;8.83;4.77;;;;;;;;;;5118260;28;20451;-71
2023/04/25 00:59:40;;;;;;;6.10;4.60;;;;;;;;;;5118682;28;20785;-70
2023/04/25 01:02:09;;;;;;;5.97;4.90;;;;;;;;;;5117103;28;20736;-72
2023/04/25 01:04:40;;;;;;;10.20;5.03;;;;;;;;;;5102654;28;20479;-69
2023/04/25 01:07:08;;;;;;;8.53;5.60;;;;;;;;;;5118437;28;20542;-69
2023/04/25 01:09:37;;;;;;;6.43;5.70;;;;;;;;;;5118722;28;20435;-70
2023/04/25 01:12:09;;;;;;;8.33;5.30;;;;;;;;;;5117003;28;20446;-71
2023/04/25 01:14:40;;;;;;;9.27;5.60;;;;;;;;;;5109285;28;20448;-70
2023/04/25 01:17:09;;;;;;;9.63;5.57;;;;;;;;;;5096845;28;20467;-70
2023/04/25 01:19:38;;;;;;;8.17;5.53;;;;;;;;;;5098414;28;20864;-68
2023/04/25 01:22:11;;;;;;;7.57;6.73;;;;;;;;;;5081183;28;20491;-70
2023/04/25 01:24:40;;;;;;;9.23;5.80;;;;;;;;;;5099176;28;20452;-70
2023/04/25 01:27:08;;;;;;;10.00;5.50;;;;;;;;;;5097661;28;20456;-70
2023/04/25 01:29:37;;;;;;;10.40;4.40;;;;;;;;;;5098088;28;20540;-70
2023/04/25 01:32:09;;;;;;;9.33;4.30;;;;;;;;;;5098538;28;20882;-70
2023/04/25 01:34:37;;;;;;;7.77;4.43;;;;;;;;;;5098151;28;20483;-71
2023/04/25 01:37:06;;;;;;;9.27;3.43;;;;;;;;;;5098038;28;20447;-69
2023/04/25 01:39:36;;;;;;;9.23;3.83;;;;;;;;;;5108166;28;20846;-69
2023/04/25 01:42:09;;;;;;;7.80;3.70;;;;;;;;;;5118054;28;21004;-69
2023/04/25 01:44:38;;;;;;;8.50;3.83;;;;;;;;;;5109359;28;20847;-69
2023/04/25 01:47:06;;;;;;;7.30;2.80;;;;;;;;;;5096719;28;20467;-69
2023/04/25 01:49:34;;;;;;;6.77;4.03;;;;;;;;;;5096802;28;20453;-69
2023/04/25 01:52:09;;;;;;;9.90;3.97;;;;;;;;;;5097772;28;20491;-69
2023/04/25 01:54:43;;;;;;;14.57;3.63;;;;;;;;;;5097013;28;20508;-71
2023/04/25 01:57:12;;;;;;;10.87;3.50;;;;;;;;;;5097568;28;20459;-69
2023/04/25 01:59:40;;;;;;;12.23;3.50;;;;;;;;;;5097124;28;20521;-70
2023/04/25 02:02:08;;;;;;;10.37;3.90;;;;;;;;;;5098373;28;20476;-69
2023/04/25 02:04:37;;;;;;;11.90;3.50;;;;;;;;;;5097455;28;20517;-70
2023/04/25 02:07:05;;;;;;;10.90;3.20;;;;;;;;;;5103227;28;20473;-69
2023/04/25 02:09:43;;;;;;;19.93;4.20;;;;;;;;;;5115924;28;20435;-70
2023/04/25 02:12:13;;;;;;;6.57;3.40;;;;;;;;;;5117146;28;20451;-71
2023/04/25 02:14:41;;;;;;;17.33;4.60;;;;;;;;;;5116608;28;20447;-70
2023/04/25 02:17:13;;;;;;;7.80;3.40;;;;;;;;;;5105836;28;20574;-71
2023/04/25 02:19:46;;;;;;;17.73;4.37;;;;;;;;;;5097222;28;20444;-69
2023/04/25 02:22:17;;;;;;;15.43;3.90;;;;;;;;;;5089858;28;20492;-70
2023/04/25 02:24:46;;;;;;;8.83;3.40;;;;;;;;;;5093002;28;20505;-70
2023/04/25 02:27:16;;;;;;;15.37;3.87;;;;;;;;;;5095736;28;20725;-69
2023/04/25 02:29:45;;;;;;;16.20;3.07;;;;;;;;;;5097792;28;20508;-69
2023/04/25 02:32:13;;;;;;;11.87;3.50;;;;;;;;;;5100013;28;20527;-69
2023/04/25 02:34:42;;;;;;;14.40;3.03;;;;;;;;;;5098434;28;20456;-69
2023/04/25 02:37:13;;;;;;;18.77;3.83;;;;;;;;;;5096578;28;20444;-70
2023/04/25 02:39:41;;;;;;;16.40;3.90;;;;;;;;;;5099304;28;20882;-70
2023/04/25 02:42:11;;;;;;;12.90;4.40;;;;;;;;;;5100305;28;20967;-70
2023/04/25 02:44:41;;;;;;;16.33;3.50;;;;;;;;;;5099571;28;20867;-70
2023/04/25 02:47:10;;;;;;;10.97;3.70;;;;;;;;;;5099389;28;20835;-70
2023/04/25 02:49:47;;;;;;;17.27;3.27;;;;;;;;;;5101480;28;20429;-70
2023/04/25 02:52:17;;;;;;;8.97;2.80;;;;;;;;;;5099071;28;20448;-70
2023/04/25 02:54:45;;;;;;;14.90;4.30;;;;;;;;;;5080683;28;20532;-69
2023/04/25 02:57:14;;;;;;;12.37;3.40;;;;;;;;;;5080010;28;20461;-70
2023/04/25 02:59:44;;;;;;;15.47;6.10;;;;;;;;;;5080065;28;20457;-69
2023/04/25 03:02:12;;;;;;;11.10;3.20;;;;;;;;;;5101382;28;20487;-70
2023/04/25 03:04:41;;;;;;;20.73;3.53;;;;;;;;;;5120640;28;20900;-69
2023/04/25 03:07:09;;;;;;;14.37;3.43;;;;;;;;;;5120343;28;20489;-70
2023/04/25 03:09:37;;;;;;;12.00;3.60;;;;;;;;;;5119170;28;20530;-70
2023/04/25 03:12:09;;;;;;;17.53;3.97;;;;;;;;;;5119604;28;20550;-70
2023/04/25 03:14:38;;;;;;;15.23;4.93;;;;;;;;;;5118155;28;20520;-70
2023/04/25 03:17:08;;;;;;;20.13;4.37;;;;;;;;;;5119495;28;20545;-69
2023/04/25 03:19:36;;;;;;;10.83;3.80;;;;;;;;;;5113548;28;21046;-69
2023/04/25 03:22:08;;;;;;;17.10;5.23;;;;;;;;;;5115157;28;20510;-70
2023/04/25 03:24:37;;;;;;;13.93;2.87;;;;;;;;;;5118357;28;20450;-70
2023/04/25 03:27:05;;;;;;;16.20;3.97;;;;;;;;;;5118096;28;20474;-70
2023/04/25 03:29:34;;;;;;;16.70;4.37;;;;;;;;;;5118018;28;20451;-71
2023/04/25 03:32:09;;;;;;;20.37;4.37;;;;;;;;;;5117966;28;20451;-71
2023/04/25 03:34:39;;;;;;;10.40;3.07;;;;;;;;;;5103013;28;20470;-70
2023/04/25 03:37:08;;;;;;;14.30;3.30;;;;;;;;;;5097279;28;20456;-68
2023/04/25 03:39:37;;;;;;;17.07;4.40;;;;;;;;;;5097459;28;20452;-70
2023/04/25 03:42:09;;;;;;;8.80;3.00;;;;;;;;;;5095786;28;20505;-69
2023/04/25 03:44:37;;;;;;;16.03;3.97;;;;;;;;;;5096508;28;20459;-68
2023/04/25 03:47:09;;;;;;;18.43;4.03;;;;;;;;;;5097211;28;20462;-69
2023/04/25 03:49:37;;;;;;;18.70;4.10;;;;;;;;;;5097051;28;20452;-70
2023/04/25 03:52:11;;;;;;;12.43;2.87;;;;;;;;;;5097647;28;20550;-69
2023/04/25 03:54:39;;;;;;;17.27;4.67;;;;;;;;;;5085053;28;20522;-69
2023/04/25 03:57:13;;;;;;;15.17;4.10;;;;;;;;;;5078537;28;20547;-71
2023/04/25 03:59:41;;;;;;;14.70;3.13;;;;;;;;;;5097005;28;20447;-69
2023/04/25 04:02:10;;;;;;;16.63;3.93;;;;;;;;;;5117661;28;20501;-70
2023/04/25 04:04:39;;;;;;;22.43;3.93;;;;;;;;;;5117090;28;20839;-70
2023/04/25 04:07:09;;;;;;;13.40;3.20;;;;;;;;;;5117577;28;20428;-70
2023/04/25 04:09:37;;;;;;;14.13;2.90;;;;;;;;;;5116575;28;20455;-69
2023/04/25 04:12:11;;;;;;;16.60;3.40;;;;;;;;;;5116809;28;20541;-70
2023/04/25 04:14:40;;;;;;;17.80;4.20;;;;;;;;;;5117069;28;20469;-70
2023/04/25 04:17:09;;;;;;;15.33;4.03;;;;;;;;;;5118037;28;20453;-69
2023/04/25 04:19:37;;;;;;;13.40;3.70;;;;;;;;;;5102186;28;20464;-70
2023/04/25 04:22:10;;;;;;;10.30;3.17;;;;;;;;;;5094891;28;20490;-69
2023/04/25 04:24:43;;;;;;;11.50;2.57;;;;;;;;;;5114162;28;20455;-71
2023/04/25 04:27:13;;;;;;;17.77;3.40;;;;;;;;;;5087298;28;20480;-70
2023/04/25 04:29:43;;;;;;;17.53;4.57;;;;;;;;;;5092276;28;20488;-69
2023/04/25 04:32:13;;;;;;;14.57;3.20;;;;;;;;;;5089438;28;20448;-69
2023/04/25 04:34:41;;;;;;;15.53;3.97;;;;;;;;;;5097276;28;20456;-68
2023/04/25 04:37:17;;;;;;;13.77;3.60;;;;;;;;;;5111835;28;20445;-70
2023/04/25 04:39:50;;;;;;;18.73;4.40;;;;;;;;;;5116684;28;20491;-71
2023/04/25 04:42:22;;;;;;;13.83;4.30;;;;;;;;;;5116160;28;20497;-68
2023/04/25 04:44:54;;;;;;;18.33;5.27;;;;;;;;;;5096647;28;21159;-68
2023/04/25 04:47:23;;;;;;;9.77;3.33;;;;;;;;;;5097390;28;20456;-69
2023/04/25 04:50:00;;;;;;;19.13;4.27;;;;;;;;;;5098358;28;20457;-69
2023/04/25 04:52:35;;;;;;;14.00;4.17;;;;;;;;;;5113395;28;20520;-69
2023/04/25 04:55:10;;;;;;;16.30;4.60;;;;;;;;;;5108663;28;20863;-69
2023/04/25 04:57:52;;;;;;;9.93;2.70;;;;;;;;;;5097683;28;20550;-70
2023/04/25 05:00:25;;;;;;;7.93;3.30;;;;;;;;;;5096358;28;20452;-69
2023/04/25 05:03:00;;;;;;;8.03;2.40;;;;;;;;;;5097434;28;20591;-70
2023/04/25 05:05:29;;;;;;;11.43;3.30;;;;;;;;;;5096031;28;20817;-68
2023/04/25 05:08:02;;;;;;;19.17;3.50;;;;;;;;;;5096391;28;20460;-68
2023/04/25 05:10:33;;;;;;;14.20;3.30;;;;;;;;;;5094518;28;20452;-70
2023/04/25 05:13:04;;;;;;;17.33;3.93;;;;;;;;;;5094527;28;20860;-70
2023/04/25 05:15:33;;;;;;;19.13;3.63;;;;;;;;;;5090374;28;20852;-70
2023/04/25 05:18:02;;;;;;;11.07;2.87;;;;;;;;;;5083266;28;20532;-69
2023/04/25 05:20:32;;;;;;;16.17;3.17;;;;;;;;;;5099994;28;20447;-68
2023/04/25 05:23:01;;;;;;;6.80;2.13;;;;;;;;;;5107998;28;20931;-68
2023/04/25 05:25:30;;;;;;;14.40;2.87;;;;;;;;;;5114998;28;20451;-68
2023/04/25 05:27:58;;;;;;;10.80;2.57;;;;;;;;;;5115383;28;20462;-68
2023/04/25 05:30:29;;;;;;;13.50;3.40;;;;;;;;;;5111701;28;20473;-69
2023/04/25 05:32:58;;;;;;;11.17;3.47;;;;;;;;;;5112395;28;20452;-69
2023/04/25 05:35:26;;;;;;;11.50;2.87;;;;;;;;;;5112324;28;20444;-69
2023/04/25 05:37:55;;;;;;;11.60;2.83;;;;;;;;;;5113474;28;20475;-70
2023/04/25 05:40:24;;;;;;;11.50;3.57;;;;;;;;;;5112366;28;20465;-68
2023/04/25 05:42:53;;;;;;;12.93;3.70;;;;;;;;;;5113647;28;20520;-70
2023/04/25 05:45:22;;;;;;;9.10;2.70;;;;;;;;;;5112561;28;20448;-70
2023/04/25 05:47:50;;;;;;;12.23;2.23;;;;;;;;;;5112971;28;20470;-69
2023/04/25 05:50:21;;;;;;;15.60;3.67;;;;;;;;;;5086524;28;20635;-69
2023/04/25 05:52:49;;;;;;;13.73;3.10;;;;;;;;;;5108540;28;20447;-69
2023/04/25 05:55:18;;;;;;;12.00;2.67;;;;;;;;;;5092675;28;20444;-70
2023/04/25 05:57:52;;;;;;;10.33;3.20;;;;;;;;;;5091071;28;21153;-70
2023/04/25 06:00:22;;;;;;;8.73;2.73;;;;;;;;;;5100064;28;20505;-70
2023/04/25 06:03:14;;;;;;;14.20;3.03;;;;;;;;;;5090474;28;20545;-70
2023/04/25 06:05:48;;;;;;;9.77;2.50;;;;;;;;;;5096782;28;20450;-70
2023/04/25 06:08:19;;;;;;;6.83;2.40;;;;;;;;;;5076909;28;20988;-71
2023/04/25 06:10:52;;;;;;;6.00;2.20;;;;;;;;;;5076006;28;21137;-71
2023/04/25 06:13:22;;;;;;;25.90;4.97;;;;;;;;;;5076698;28;20488;-70
2023/04/25 06:15:51;;;;;;;13.70;2.67;;;;;;;;;;5073376;28;20456;-69
2023/04/25 06:18:28;;;;;;;9.47;2.70;;;;;;;;;;5075245;28;20679;-70
2023/04/25 06:20:57;;;;;;;16.43;2.50;;;;;;;;;;5072682;28;20513;-70
2023/04/25 06:23:28;;;;;;;8.40;2.30;;;;;;;;;;5072257;28;20489;-70
2023/04/25 06:25:57;;;;;;;10.87;3.60;;;;;;;;;;5074120;28;20803;-70
2023/04/25 06:28:29;;;;;;;12.30;3.10;;;;;;;;;;5070915;28;20457;-68
2023/04/25 06:30:57;;;;;;;12.97;2.97;;;;;;;;;;5072988;28;20453;-68
2023/04/25 06:33:27;;;;;;;12.70;3.30;;;;;;;;;;5075479;28;20452;-70
2023/04/25 06:35:56;;;;;;;8.50;3.03;;;;;;;;;;5073264;28;20453;-68
2023/04/25 06:38:25;;;;;;;13.97;2.53;;;;;;;;;;5074905;28;21055;-70
2023/04/25 06:40:55;;;;;;;10.13;2.30;;;;;;;;;;5074231;28;20468;-70
2023/04/25 06:43:28;;;;;;;8.63;2.00;;;;;;;;;;5078776;28;20485;-70
2023/04/25 06:46:08;;;;;;;9.60;2.60;;;;;;;;;;5075981;28;20510;-70
2023/04/25 06:48:54;;;;;;;;;;;;;;;;;;;;;
2023/04/25 06:51:29;;;;;;;4.27;1.87;;;;;;;;;;5110230;28;20472;-70
2023/04/25 06:53:59;;;;;;;8.20;2.83;;;;;;;;;;5094811;28;20471;-70
2023/04/25 06:56:32;;;;;;;10.50;2.60;;;;;;;;;;5094464;28;20552;-69
2023/04/25 06:59:03;;;;;;;8.27;2.53;;;;;;;;;;5097152;28;20455;-69
2023/04/25 07:01:32;;;;;;;19.73;2.63;;;;;;;;;;5096089;28;20479;-69
2023/04/25 07:04:00;;;;;;;10.80;2.63;;;;;;;;;;5096864;28;20476;-69
2023/04/25 07:06:29;;;;;;;5.83;1.83;;;;;;;;;;5096406;28;20484;-69
2023/04/25 07:08:58;;;;;;;14.60;2.73;;;;;;;;;;5095494;28;20459;-70
2023/04/25 07:11:36;;;;;;;13.43;3.00;;;;;;;;;;5095238;28;20451;-70
2023/04/25 07:14:26;;;;;;;9.37;2.30;;;;;;;;;;5106547;28;20475;-70
2023/04/25 07:17:06;;;;;;;5.97;2.57;;;;;;;;;;5115875;28;20587;-70
2023/04/25 07:19:44;;;;;;;14.13;2.67;;;;;;;;;;5096716;28;20464;-69
2023/04/25 07:22:22;;;;;;;8.90;1.87;;;;;;;;;;5094572;28;20491;-69
2023/04/25 07:27:58;;;;;;;8.10;2.50;;;;;;;;;;5094842;28;20867;-71
2023/04/25 07:30:30;;;;;;;10.57;2.53;;;;;;;;;;5095000;28;20456;-70
2023/04/25 07:33:04;;;;;;;8.90;2.00;;;;;;;;;;5098697;28;20467;-71
2023/04/25 07:35:38;;;;;;;9.60;1.80;;;;;;;;;;5096520;28;20475;-71
2023/04/25 07:38:10;;;;;;;9.40;2.30;;;;;;;;;;5096874;28;20436;-70
2023/04/25 07:43:22;;;;;;;7.47;1.80;;;;;;;;;;5094869;28;20482;-71
2023/04/25 07:45:54;;;;;;;16.23;2.20;;;;;;;;;;5094851;28;20539;-71
2023/04/25 07:48:36;;;;;;;5.07;2.30;;;;;;;;;;5093684;28;20856;-70
2023/04/25 07:51:13;;;;;;;10.97;2.63;;;;;;;;;;5094057;28;20451;-70
2023/04/25 07:56:47;;;;;;;13.60;3.60;;;;;;;;;;5075124;28;20805;-68
2023/04/25 07:59:19;;;;;;;8.30;2.00;;;;;;;;;;5083743;28;20529;-70
2023/04/25 08:01:49;;;;;;;11.60;2.70;;;;;;;;;;5101681;28;20499;-69
2023/04/25 08:04:28;;;;;;;7.63;2.90;;;;;;;;;;5098331;28;20786;-70
2023/04/25 08:07:00;;;;;;;6.90;1.50;;;;;;;;;;5097929;28;20497;-70
2023/04/25 08:09:34;;;;;;;8.50;1.63;;;;;;;;;;5096328;28;20444;-68
2023/04/25 08:12:11;;;;;;;8.33;2.57;;;;;;;;;;5097623;28;20444;-70
2023/04/25 08:14:46;;;;;;;6.70;2.50;;;;;;;;;;5098999;28;20616;-72
2023/04/25 08:17:26;;;;;;;7.60;2.27;;;;;;;;;;5102476;28;20451;-70
2023/04/25 08:19:58;;;;;;;7.03;1.57;;;;;;;;;;5097705;28;20458;-70
2023/04/25 08:22:37;;;;;;;9.63;2.00;;;;;;;;;;5094288;28;20467;-71
2023/04/25 08:25:08;;;;;;;7.67;1.93;;;;;;;;;;5097329;28;20464;-70
2023/04/25 08:27:42;;;;;;;8.40;1.67;;;;;;;;;;5094979;28;20452;-70
2023/04/25 08:30:30;;;;;;;3.73;1.40;;;;;;;;;;5093144;28;20463;-70
2023/04/25 08:33:14;;;;;;;9.70;2.43;;;;;;;;;;5082931;28;20995;-71
2023/04/25 08:35:52;;;;;;;7.57;1.60;;;;;;;;;;5095092;28;20484;-71
2023/04/25 08:38:22;;;;;;;6.30;1.73;;;;;;;;;;5090969;28;20531;-70
2023/04/25 08:40:57;;;;;;;5.00;1.53;;;;;;;;;;5102879;28;20447;-72
2023/04/25 08:43:29;;;;;;;4.97;1.80;;;;;;;;;;5096752;28;20511;-71
2023/04/25 08:46:03;;;;;;;6.83;1.53;;;;;;;;;;5089987;28;20456;-70
2023/04/25 08:48:33;;;;;;;8.57;1.33;;;;;;;;;;5091089;28;20483;-69
2023/04/25 08:51:15;;;;;;;5.60;1.30;;;;;;;;;;5097468;28;20459;-72
2023/04/25 08:53:51;;;;;;;13.07;2.47;;;;;;;;;;5087948;28;20449;-69
2023/04/25 08:56:23;;;;;;;4.50;1.80;;;;;;;;;;5081022;28;20536;-70
2023/04/25 08:58:58;;;;;;;6.20;1.37;;;;;;;;;;5079707;28;20851;-72
2023/04/25 09:01:37;;;;;;;5.93;1.80;;;;;;;;;;5093180;28;20451;-70
2023/04/25 09:04:09;;;;;;;8.83;1.70;;;;;;;;;;5097397;28;20476;-69
2023/04/25 09:06:41;;;;;;;3.90;1.93;;;;;;;;;;5094638;28;20891;-71
2023/04/25 09:09:10;;;;;;;8.93;2.20;;;;;;;;;;5069140;28;20490;-71
2023/04/25 09:11:40;;;;;;;7.70;1.40;;;;;;;;;;5074802;28;20502;-70
2023/04/25 09:14:16;;;;;;;10.50;1.57;;;;;;;;;;5075163;28;20441;-71
2023/04/25 09:17:12;;;;;;;5.97;1.83;;;;;;;;;;5075060;28;20453;-69
2023/04/25 09:19:42;;;;;;;7.43;1.47;;;;;;;;;;5080734;28;20977;-71
2023/04/25 09:22:21;;;;;;;4.70;1.13;;;;;;;;;;5094969;28;20475;-70
2023/04/25 09:25:00;;;;;;;12.43;1.53;;;;;;;;;;5095422;28;20715;-71
2023/04/25 09:27:30;;;;;;;4.57;1.77;;;;;;;;;;5087447;28;20906;-70
2023/04/25 09:30:05;;;;;;;10.03;1.87;;;;;;;;;;5071380;28;21107;-69
2023/04/25 09:32:34;;;;;;;7.97;2.00;;;;;;;;;;5075222;28;20486;-70
2023/04/25 09:35:04;;;;;;;6.97;1.37;;;;;;;;;;5070737;28;20913;-68
2023/04/25 09:37:35;;;;;;;3.70;1.60;;;;;;;;;;5071946;28;20508;-70
2023/04/25 09:40:16;;;;;;;3.17;1.07;;;;;;;;;;5069675;28;20441;-70
2023/04/25 09:42:47;;;;;;;5.33;2.10;;;;;;;;;;5074334;28;20477;-71
2023/04/25 09:45:19;;;;;;;6.10;1.00;;;;;;;;;;5073332;28;20659;-71
2023/04/25 09:47:49;;;;;;;5.07;0.90;;;;;;;;;;5072613;28;21049;-71
2023/04/25 09:50:28;;;;;;;3.77;1.27;;;;;;;;;;5069465;28;20445;-71
2023/04/25 09:53:10;;;;;;;3.93;1.00;;;;;;;;;;5073132;28;20477;-70
2023/04/25 09:55:50;;;;;;;9.87;1.40;;;;;;;;;;5086288;28;20493;-70
2023/04/25 10:01:55;;;;;;;7.17;1.07;;;;;;;;;;5023728;28;21086;-69
2023/04/25 10:04:25;;;;;;;2.90;0.80;;;;;;;;;;5075622;28;20518;-70
2023/04/25 10:06:55;;;;;;;5.43;0.90;;;;;;;;;;5089572;28;21041;-69
2023/04/25 10:09:29;;;;;;;5.00;1.40;;;;;;;;;;5090400;28;20466;-69
2023/04/25 10:12:07;;;;;;;4.50;1.17;;;;;;;;;;5092095;28;20538;-70
2023/04/25 10:14:39;;;;;;;3.97;1.20;;;;;;;;;;5090897;28;20455;-70
2023/04/25 10:17:08;;;;;;;2.43;0.70;;;;;;;;;;5089362;28;20480;-68
2023/04/25 10:19:46;;;;;;;2.30;1.03;;;;;;;;;;5073112;28;20440;-69
2023/04/25 10:22:25;;;;;;;3.00;1.10;;;;;;;;;;5071603;28;20445;-69
2023/04/25 10:24:56;;;;;;;6.20;1.70;;;;;;;;;;5073121;28;20495;-69
2023/04/25 10:27:28;;;;;;;3.43;1.10;;;;;;;;;;5081415;28;20532;-71
2023/04/25 10:30:09;;;;;;;5.90;1.37;;;;;;;;;;5090657;28;20451;-70
2023/04/25 10:32:39;;;;;;;6.50;1.83;;;;;;;;;;5090870;28;20796;-68
2023/04/25 10:35:18;;;;;;;6.20;1.30;;;;;;;;;;5089693;28;20452;-69
2023/04/25 10:38:02;;;;;;;2.40;0.70;;;;;;;;;;5090960;28;20521;-72
2023/04/25 10:40:41;;;;;;;8.80;1.77;;;;;;;;;;5091582;28;20500;-69
2023/04/25 10:43:26;;;;;;;6.67;1.50;;;;;;;;;;5093052;28;20480;-71
2023/04/25 10:46:03;;;;;;;2.70;1.20;;;;;;;;;;5076726;28;20457;-69
2023/04/25 10:48:33;;;;;;;3.23;1.10;;;;;;;;;;5086796;28;21038;-71
2023/04/25 10:51:19;;;;;;;4.43;1.23;;;;;;;;;;5094984;28;20770;-71
2023/04/25 10:54:06;;;;;;;5.97;1.97;;;;;;;;;;5079654;28;20471;-69
2023/04/25 10:59:45;;;;;;;3.43;1.23;;;;;;;;;;5084762;28;20445;-72
2023/04/25 11:02:40;;;;;;;6.40;2.70;;;;;;;;;;5087823;28;20455;-71
2023/04/25 11:07:58;;;;;;;3.63;1.07;;;;;;;;;;5083751;28;20547;-71
2023/04/25 11:10:29;;;;;;;5.10;2.10;;;;;;;;;;5095074;28;20440;-70
2023/04/25 11:13:00;;;;;;;5.80;1.20;;;;;;;;;;5098401;28;20455;-70
2023/04/25 11:15:48;;;;;;;4.00;1.13;;;;;;;;;;5094153;28;20444;-74
2023/04/25 11:18:38;;;;;;;4.33;1.90;;;;;;;;;;5075322;28;20752;-70
2023/04/25 11:21:27;;;;;;;4.13;1.40;;;;;;;;;;5088416;28;20468;-70
2023/04/25 11:23:56;;;;;;;9.10;1.60;;;;;;;;;;5098881;28;20486;-69
2023/04/25 11:26:30;;;;;;;4.93;0.97;;;;;;;;;;5075050;28;20453;-70
2023/04/25 11:29:26;;;;;;;5.70;1.33;;;;;;;;;;5074762;28;20460;-72
2023/04/25 11:32:15;;;;;;;7.07;1.90;;;;;;;;;;5076313;28;20461;-70
2023/04/25 11:35:07;;;;;;;8.23;1.87;;;;;;;;;;5077124;28;20538;-71
2023/04/25 11:37:38;;;;;;;3.90;1.03;;;;;;;;;;5078375;28;20484;-72
2023/04/25 11:40:19;;;;;;;1.50;0.73;;;;;;;;;;5078343;28;20460;-70
2023/04/25 11:42:48;;;;;;;3.13;1.20;;;;;;;;;;5079095;28;20456;-69
2023/04/25 11:45:26;;;;;;;3.10;1.10;;;;;;;;;;5098258;28;21062;-69
2023/04/25 11:47:57;;;;;;;3.17;1.57;;;;;;;;;;5096937;28;20476;-69
2023/04/25 11:50:34;;;;;;;5.90;0.90;;;;;;;;;;5097336;28;20453;-69
2023/04/25 11:53:16;;;;;;;3.23;0.90;;;;;;;;;;5097531;28;20447;-69
2023/04/25 11:55:51;;;;;;;6.00;1.10;;;;;;;;;;5094694;28;20525;-69
2023/04/25 11:58:21;;;;;;;4.77;3.00;;;;;;;;;;5095872;28;20447;-70
2023/04/25 12:01:13;;;;;;;3.43;1.27;;;;;;;;;;5079033;28;21144;-70
2023/04/25 12:03:51;;;;;;;3.10;1.00;;;;;;;;;;5091516;28;20524;-71
2023/04/25 12:06:26;;;;;;;2.30;0.97;;;;;;;;;;5099124;28;20444;-70
2023/04/25 12:09:07;;;;;;;4.67;1.40;;;;;;;;;;5097943;28;20460;-70
2023/04/25 12:15:09;;;;;;;4.13;1.00;;;;;;;;;;5103759;28;20858;-71
2023/04/25 12:17:53;;;;;;;2.70;1.30;;;;;;;;;;5087017;28;20436;-70
2023/04/25 12:20:25;;;;;;;8.13;1.20;;;;;;;;;;5093738;28;20428;-71
2023/04/25 12:22:55;;;;;;;5.00;1.80;;;;;;;;;;5093600;28;20436;-69
2023/04/25 12:25:38;;;;;;;3.73;1.10;;;;;;;;;;5094303;28;20490;-71
2023/04/25 12:28:20;;;;;;;5.73;1.17;;;;;;;;;;5095718;28;20551;-70
2023/04/25 12:31:05;;;;;;;5.07;1.70;;;;;;;;;;5096072;28;20487;-70
2023/04/25 12:33:47;;;;;;;4.97;2.27;;;;;;;;;;5097773;28;20526;-70
2023/04/25 12:36:19;;;;;;;10.33;1.33;;;;;;;;;;5096746;28;20448;-70
2023/04/25 12:39:04;;;;;;;8.33;1.87;;;;;;;;;;5096803;28;20794;-70
2023/04/25 12:41:33;;;;;;;3.70;1.10;;;;;;;;;;5095202;28;20437;-71
2023/04/25 12:44:09;;;;;;;2.07;0.60;;;;;;;;;;5095066;28;20575;-71
2023/04/25 12:46:44;;;;;;;6.50;1.70;;;;;;;;;;5075398;28;20881;-71
2023/04/25 12:49:13;;;;;;;5.17;1.40;;;;;;;;;;5094446;28;20456;-70
2023/04/25 12:51:43;;;;;;;7.33;1.37;;;;;;;;;;5089740;28;20748;-69
2023/04/25 12:54:24;;;;;;;4.73;1.10;;;;;;;;;;5093901;28;20555;-72
2023/04/25 12:57:02;;;;;;;3.90;1.20;;;;;;;;;;5095229;28;20760;-70
2023/04/25 12:59:32;;;;;;;9.23;1.20;;;;;;;;;;5091290;28;20473;-70
2023/04/25 13:02:09;;;;;;;4.67;1.00;;;;;;;;;;5091700;28;20859;-69
2023/04/25 13:04:49;;;;;;;3.40;1.23;;;;;;;;;;5091953;28;20516;-71
2023/04/25 13:07:27;;;;;;;6.80;1.30;;;;;;;;;;5074869;28;20444;-70
2023/04/25 13:10:06;;;;;;;3.20;0.70;;;;;;;;;;5091838;28;20447;-71
2023/04/25 13:12:59;;;;;;;7.10;1.10;;;;;;;;;;5092225;28;20440;-72
2023/04/25 13:15:47;;;;;;;3.60;0.97;;;;;;;;;;5073547;28;20480;-70
2023/04/25 13:18:28;;;;;;;3.53;1.23;;;;;;;;;;5070391;28;20457;-71
2023/04/25 13:20:57;;;;;;;7.30;1.23;;;;;;;;;;5084019;28;20996;-70
2023/04/25 13:23:27;;;;;;;5.80;1.50;;;;;;;;;;5095677;28;20478;-70
2023/04/25 13:25:58;;;;;;;3.43;1.00;;;;;;;;;;5093033;28;20546;-70
2023/04/25 13:28:40;;;;;;;4.63;1.30;;;;;;;;;;5092874;28;20456;-70
2023/04/25 13:31:08;;;;;;;4.53;1.30;;;;;;;;;;5089300;28;20902;-70
2023/04/25 13:33:37;;;;;;;4.07;1.00;;;;;;;;;;5092512;28;20452;-70
2023/04/25 13:36:06;;;;;;;5.47;1.00;;;;;;;;;;5090035;28;20448;-70
2023/04/25 13:38:35;;;;;;;4.70;1.17;;;;;;;;;;5090998;28;20456;-69
2023/04/25 13:41:15;;;;;;;3.40;1.10;;;;;;;;;;5089952;28;20452;-69
2023/04/25 13:43:44;;;;;;;5.07;0.90;;;;;;;;;;5089373;28;20505;-70
2023/04/25 13:46:26;;;;;;;6.20;1.13;;;;;;;;;;5091164;28;20464;-69
2023/04/25 13:48:58;;;;;;;2.30;0.87;;;;;;;;;;5092854;28;20863;-70
2023/04/25 13:51:28;;;;;;;2.93;1.03;;;;;;;;;;5090115;28;20452;-68
2023/04/25 13:53:56;;;;;;;4.20;1.00;;;;;;;;;;5089548;28;20543;-71
2023/04/25 13:56:27;;;;;;;4.60;1.57;;;;;;;;;;5092020;28;20444;-70
2023/04/25 14:04:46;;;;;;;4.07;1.10;;;;;;;;;;5074256;28;20501;-71
2023/04/25 14:07:28;;;;;;;4.73;0.90;;;;;;;;;;5089034;28;20449;-70
2023/04/25 14:09:58;;;;;;;3.67;1.30;;;;;;;;;;5086642;28;20456;-70
2023/04/25 14:12:41;;;;;;;3.30;1.20;;;;;;;;;;5094130;28;20499;-71
2023/04/25 14:15:16;;;;;;;2.57;1.10;;;;;;;;;;5076970;28;20464;-70
2023/04/25 14:17:59;;;;;;;6.70;1.40;;;;;;;;;;5086703;28;20432;-70
2023/04/25 14:20:28;;;;;;;3.47;1.33;;;;;;;;;;5073171;28;20481;-69
2023/04/25 14:23:00;;;;;;;3.53;1.37;;;;;;;;;;5072663;28;20509;-71
2023/04/25 14:25:32;;;;;;;5.53;1.10;;;;;;;;;;5082231;28;20545;-71
2023/04/25 14:28:03;;;;;;;6.73;1.50;;;;;;;;;;5095652;28;20835;-71
2023/04/25 14:30:35;;;;;;;7.53;1.60;;;;;;;;;;5096215;28;20467;-70
2023/04/25 14:33:14;;;;;;;5.50;1.70;;;;;;;;;;5096171;28;20957;-70
2023/04/25 14:36:05;;;;;;;3.50;1.83;;;;;;;;;;5088741;28;20486;-72
2023/04/25 14:38:38;;;;;;;6.33;1.37;;;;;;;;;;5087867;28;20443;-70
2023/04/25 14:41:13;;;;;;;6.70;1.60;;;;;;;;;;5098859;28;20487;-69
2023/04/25 14:43:45;;;;;;;8.53;1.20;;;;;;;;;;5093015;28;20445;-70
2023/04/25 14:46:21;;;;;;;8.53;1.53;;;;;;;;;;5092367;28;20552;-71
2023/04/25 14:49:06;;;;;;;7.37;1.80;;;;;;;;;;5099996;28;20483;-70
2023/04/25 14:52:28;;;;;;;13.47;2.13;;;;;;;;;;5093388;28;20460;-71
2023/04/25 14:55:07;;;;;;;3.60;1.73;;;;;;;;;;5072191;28;20887;-72
2023/04/25 14:57:35;;;;;;;6.87;1.50;;;;;;;;;;5071142;28;20498;-70
2023/04/25 15:00:15;;;;;;;2.37;1.00;;;;;;;;;;5092065;28;20456;-70
2023/04/25 15:02:44;;;;;;;7.67;2.00;;;;;;;;;;5091267;28;20586;-70
2023/04/25 15:05:13;;;;;;;5.55;1.50;;;;;;;;;;5093547;28;20453;-72
2023/04/25 15:07:56;;;;;;;2.57;1.30;;;;;;;;;;5087634;28;20201;-71
2023/04/25 15:10:28;;;;;;;5.80;1.60;;;;;;;;;;5078570;28;20897;-70
2023/04/25 15:12:58;;;;;;;5.90;1.50;;;;;;;;;;5096490;28;20495;-70
2023/04/25 15:15:54;;;;;;;11.97;1.60;;;;;;;;;;5091022;28;20759;-70
2023/04/25 15:18:30;;;;;;;5.00;1.00;;;;;;;;;;5096867;28;20480;-70
2023/04/25 15:21:12;;;;;;;2.50;0.97;;;;;;;;;;5096270;28;20456;-72
2023/04/25 15:23:42;;;;;;;1.97;0.73;;;;;;;;;;5094080;28;20452;-70
2023/04/25 15:26:14;;;;;;;5.37;1.77;;;;;;;;;;5096724;28;20476;-71
2023/04/25 15:28:45;;;;;;;5.77;0.97;;;;;;;;;;5094368;28;21097;-70
2023/04/25 15:31:40;;;;;;;2.93;1.03;;;;;;;;;;5083096;28;20448;-71
2023/04/25 15:34:43;;;;;;;3.47;1.40;;;;;;;;;;5080055;28;20460;-71
2023/04/25 15:37:25;;;;;;;5.90;1.70;;;;;;;;;;5083058;28;20505;-71
2023/04/25 15:40:07;;;;;;;6.30;1.73;;;;;;;;;;5097036;28;20900;-71
2023/04/25 15:42:38;;;;;;;14.37;1.80;;;;;;;;;;5098526;28;20728;-71
2023/04/25 15:45:14;;;;;;;8.00;1.50;;;;;;;;;;5093502;28;20805;-69